createdAt,value
2022-09-23T00:01:05.618Z,11.70
2022-09-23T00:03:33.385Z,11.70
2022-09-23T00:06:02.620Z,11.70
2022-09-23T00:08:30.311Z,11.70
2022-09-23T00:10:58.046Z,11.70
2022-09-23T00:13:25.503Z,11.70
2022-09-23T00:15:52.771Z,11.60
2022-09-23T00:18:20.837Z,11.60
2022-09-23T00:20:47.947Z,11.60
2022-09-23T00:23:15.017Z,11.60
2022-09-23T00:25:41.996Z,11.60
2022-09-23T00:28:08.949Z,11.60
2022-09-23T00:30:37.840Z,11.50
2022-09-23T00:33:04.766Z,11.50
2022-09-23T00:35:31.673Z,11.50
2022-09-23T00:37:58.614Z,11.50
2022-09-23T00:40:26.193Z,11.50
2022-09-23T00:42:53.241Z,11.40
2022-09-23T00:45:20.213Z,11.40
2022-09-23T00:48:03.746Z,11.40
2022-09-23T00:50:37.701Z,11.40
2022-09-23T00:53:06.900Z,11.40
2022-09-23T00:55:39.229Z,11.40
2022-09-23T00:58:11.137Z,11.40
2022-09-23T01:00:38.922Z,11.40
2022-09-23T01:03:07.501Z,11.40
2022-09-23T01:05:34.955Z,11.40
2022-09-23T01:08:04.405Z,11.40
2022-09-23T01:10:42.296Z,11.40
2022-09-23T01:13:47.161Z,11.40
2022-09-23T01:16:50.063Z,11.40
2022-09-23T01:19:32.206Z,11.40
2022-09-23T01:21:59.120Z,11.40
2022-09-23T01:24:44.355Z,11.40
2022-09-23T01:27:17.040Z,11.40
2022-09-23T01:30:11.205Z,11.30
2022-09-23T01:32:56.614Z,11.40
2022-09-23T01:36:10.104Z,11.40
2022-09-23T01:38:59.135Z,11.40
2022-09-23T01:41:38.856Z,11.40
2022-09-23T01:44:30.674Z,11.40
2022-09-23T01:47:00.809Z,11.30
2022-09-23T01:49:39.868Z,11.30
2022-09-23T01:52:18.742Z,11.40
2022-09-23T01:54:57.896Z,11.30
2022-09-23T01:57:31.894Z,11.40
2022-09-23T02:00:14.020Z,11.40
2022-09-23T02:02:50.111Z,11.40
2022-09-23T02:05:19.172Z,11.40
2022-09-23T02:07:52.103Z,11.50
2022-09-23T02:10:25.149Z,11.50
2022-09-23T02:12:58.478Z,11.40
2022-09-23T02:15:35.658Z,11.40
2022-09-23T02:18:14.241Z,11.40
2022-09-23T02:20:41.540Z,11.40
2022-09-23T02:23:13.177Z,11.40
2022-09-23T02:26:08.835Z,11.30
2022-09-23T02:28:54.956Z,11.30
2022-09-23T02:31:27.782Z,11.20
2022-09-23T02:34:11.535Z,11.10
2022-09-23T02:37:13.701Z,11.10
2022-09-23T02:39:56.191Z,11.10
2022-09-23T02:42:31.085Z,11.10
2022-09-23T02:44:59.045Z,11.00
2022-09-23T02:47:31.420Z,11.00
2022-09-23T02:49:58.620Z,10.90
2022-09-23T02:52:25.897Z,10.90
2022-09-23T02:54:53.280Z,10.90
2022-09-23T02:57:20.512Z,10.90
2022-09-23T02:59:47.761Z,10.90
2022-09-23T03:02:36.141Z,10.90
2022-09-23T03:05:06.647Z,10.80
2022-09-23T03:08:05.112Z,10.80
2022-09-23T03:10:42.788Z,10.80
2022-09-23T03:13:25.119Z,10.80
2022-09-23T03:16:05.268Z,10.80
2022-09-23T03:18:48.982Z,10.70
2022-09-23T03:21:34.708Z,10.70
2022-09-23T03:24:06.081Z,10.60
2022-09-23T03:26:36.634Z,10.60
2022-09-23T03:29:06.557Z,10.50
2022-09-23T03:31:35.463Z,10.50
2022-09-23T03:34:07.263Z,10.40
2022-09-23T03:36:51.736Z,10.40
2022-09-23T03:39:27.886Z,10.30
2022-09-23T03:41:58.656Z,10.30
2022-09-23T03:44:29.053Z,10.20
2022-09-23T03:47:02.425Z,10.20
2022-09-23T03:49:33.439Z,10.20
2022-09-23T03:52:00.972Z,10.20
2022-09-23T03:54:29.958Z,10.20
2022-09-23T03:56:58.401Z,10.20
2022-09-23T03:59:25.929Z,10.20
2022-09-23T04:01:53.368Z,10.20
2022-09-23T04:04:20.817Z,10.20
2022-09-23T04:06:50.793Z,10.20
2022-09-23T04:09:17.846Z,10.20
2022-09-23T04:11:44.812Z,10.20
2022-09-23T04:14:12.264Z,10.20
2022-09-23T04:16:39.667Z,10.30
2022-09-23T04:19:11.349Z,10.30
2022-09-23T04:21:39.231Z,10.40
2022-09-23T04:24:06.431Z,10.40
2022-09-23T04:26:34.316Z,10.40
2022-09-23T04:29:01.828Z,10.40
2022-09-23T04:31:29.013Z,10.50
2022-09-23T04:33:56.163Z,10.50
2022-09-23T04:36:23.461Z,10.50
2022-09-23T04:38:51.186Z,10.50
2022-09-23T04:41:18.993Z,10.50
2022-09-23T04:43:45.999Z,10.60
2022-09-23T04:46:15.328Z,10.60
2022-09-23T04:48:43.200Z,10.60
2022-09-23T04:51:16.205Z,10.60
2022-09-23T04:53:46.105Z,10.60
2022-09-23T04:56:18.547Z,10.60
2022-09-23T04:58:46.130Z,10.60
2022-09-23T05:01:19.896Z,10.60
2022-09-23T05:03:47.298Z,10.60
2022-09-23T05:06:15.048Z,10.60
2022-09-23T05:08:47.174Z,10.60
2022-09-23T05:11:14.210Z,10.60
2022-09-23T05:13:41.275Z,10.60
2022-09-23T05:16:12.433Z,10.60
2022-09-23T05:18:42.840Z,10.60
2022-09-23T05:21:11.678Z,10.60
2022-09-23T05:23:39.890Z,10.60
2022-09-23T05:26:09.564Z,10.60
2022-09-23T05:28:39.326Z,10.60
2022-09-23T05:31:17.153Z,10.50
2022-09-23T05:33:49.960Z,10.50
2022-09-23T05:36:20.701Z,10.50
2022-09-23T05:38:50.107Z,10.50
2022-09-23T05:41:19.027Z,10.50
2022-09-23T05:43:47.560Z,10.60
2022-09-23T05:46:19.783Z,10.60
2022-09-23T05:48:47.633Z,10.60
2022-09-23T05:51:18.468Z,10.60
2022-09-23T05:53:46.388Z,10.70
2022-09-23T05:56:17.375Z,10.80
2022-09-23T05:58:45.235Z,10.80
2022-09-23T06:01:14.333Z,10.80
2022-09-23T06:03:41.576Z,10.80
2022-09-23T06:06:14.615Z,10.80
2022-09-23T06:08:42.460Z,10.80
2022-09-23T06:11:09.717Z,10.80
2022-09-23T06:13:39.971Z,10.90
2022-09-23T06:16:13.171Z,10.90
2022-09-23T06:18:42.467Z,11.00
2022-09-23T06:21:13.277Z,11.00
2022-09-23T06:23:41.870Z,11.00
2022-09-23T06:26:11.904Z,11.00
2022-09-23T06:28:40.685Z,11.00
2022-09-23T06:31:13.570Z,11.00
2022-09-23T06:34:11.152Z,11.10
2022-09-23T06:36:44.342Z,11.10
2022-09-23T06:39:13.066Z,11.20
2022-09-23T06:41:40.473Z,11.20
2022-09-23T06:44:07.772Z,11.30
2022-09-23T06:46:36.936Z,11.30
2022-09-23T06:49:04.151Z,11.30
2022-09-23T06:51:31.131Z,11.40
2022-09-23T06:53:58.037Z,11.40
2022-09-23T06:56:25.160Z,11.40
2022-09-23T06:58:52.791Z,11.50
2022-09-23T07:01:20.204Z,11.50
2022-09-23T07:03:48.603Z,11.50
2022-09-23T07:06:17.243Z,11.60
2022-09-23T07:08:47.044Z,11.60
2022-09-23T07:11:15.754Z,11.70
2022-09-23T07:13:43.260Z,11.70
2022-09-23T07:16:11.180Z,11.80
2022-09-23T07:18:39.111Z,11.80
2022-09-23T07:21:23.054Z,11.90
2022-09-23T07:23:52.063Z,11.90
2022-09-23T07:26:20.252Z,11.90
2022-09-23T07:28:47.235Z,11.90
2022-09-23T07:31:33.523Z,12.00
2022-09-23T07:34:04.149Z,12.00
2022-09-23T07:36:32.899Z,12.10
2022-09-23T07:39:03.479Z,12.10
2022-09-23T07:41:32.674Z,12.20
2022-09-23T07:44:00.717Z,12.20
2022-09-23T07:46:30.337Z,12.30
2022-09-23T07:48:58.311Z,12.40
2022-09-23T07:51:35.764Z,12.50
2022-09-23T07:54:08.026Z,12.60
2022-09-23T07:56:36.199Z,12.70
2022-09-23T07:59:04.734Z,12.80
2022-09-23T08:01:35.056Z,12.90
2022-09-23T08:04:17.959Z,13.00
2022-09-23T08:06:50.583Z,13.00
2022-09-23T08:09:19.549Z,13.00
2022-09-23T08:11:46.651Z,13.10
2022-09-23T08:14:15.492Z,13.20
2022-09-23T08:16:47.209Z,13.20
2022-09-23T08:19:14.923Z,13.20
2022-09-23T08:21:42.089Z,13.20
2022-09-23T08:24:14.211Z,13.30
2022-09-23T08:26:41.287Z,13.40
2022-09-23T08:29:10.231Z,13.50
2022-09-23T08:31:37.214Z,13.70
2022-09-23T08:34:04.485Z,13.70
2022-09-23T08:36:31.915Z,13.80
2022-09-23T08:38:59.120Z,13.80
2022-09-23T08:41:29.446Z,13.80
2022-09-23T08:44:04.860Z,13.80
2022-09-23T08:46:37.755Z,13.90
2022-09-23T08:49:07.286Z,13.90
2022-09-23T08:51:42.579Z,14.00
2022-09-23T08:54:14.051Z,14.20
2022-09-23T08:56:44.682Z,14.40
2022-09-23T08:59:14.782Z,14.50
2022-09-23T09:01:50.204Z,14.70
2022-09-23T09:04:27.631Z,14.70
2022-09-23T09:07:31.686Z,14.70
2022-09-23T09:10:17.046Z,14.70
2022-09-23T09:12:50.545Z,14.70
2022-09-23T09:15:29.045Z,14.80
2022-09-23T09:18:01.895Z,14.80
2022-09-23T09:20:57.495Z,14.80
2022-09-23T09:23:50.270Z,14.80
2022-09-23T09:26:25.343Z,14.90
2022-09-23T09:29:17.079Z,15.00
2022-09-23T09:31:51.407Z,15.00
2022-09-23T09:34:30.536Z,15.10
2022-09-23T09:37:07.528Z,15.10
2022-09-23T09:39:36.119Z,15.20
2022-09-23T09:42:06.054Z,15.30
2022-09-23T09:44:48.445Z,15.30
2022-09-23T09:47:29.290Z,15.40
2022-09-23T09:50:04.360Z,15.40
2022-09-23T09:52:31.799Z,15.40
2022-09-23T09:55:14.139Z,15.40
2022-09-23T09:57:54.794Z,15.60
2022-09-23T10:00:27.771Z,15.60
2022-09-23T10:03:25.547Z,15.60
2022-09-23T10:05:54.538Z,15.50
2022-09-23T10:08:35.287Z,15.50
2022-09-23T10:11:17.583Z,15.60
2022-09-23T10:14:02.481Z,15.60
2022-09-23T10:16:32.163Z,15.70
2022-09-23T10:19:01.972Z,15.70
2022-09-23T10:21:37.726Z,15.80
2022-09-23T10:24:07.030Z,15.80
2022-09-23T10:26:42.062Z,15.70
2022-09-23T10:29:50.874Z,15.70
2022-09-23T10:32:25.861Z,15.80
2022-09-23T10:34:57.773Z,15.80
2022-09-23T10:37:44.585Z,15.80
2022-09-23T10:40:51.127Z,15.80
2022-09-23T10:44:08.263Z,15.80
2022-09-23T10:46:55.826Z,15.90
2022-09-23T10:49:37.929Z,16.00
2022-09-23T10:52:16.213Z,16.00
2022-09-23T10:54:58.475Z,16.00
2022-09-23T10:57:52.259Z,16.10
2022-09-23T11:00:46.945Z,16.00
2022-09-23T11:03:46.288Z,16.10
2022-09-23T11:06:18.384Z,16.10
2022-09-23T11:09:04.445Z,16.20
2022-09-23T11:11:54.966Z,16.40
2022-09-23T11:14:53.053Z,16.40
2022-09-23T11:17:38.897Z,16.50
2022-09-23T11:20:35.564Z,16.60
2022-09-23T11:23:40.434Z,16.80
2022-09-23T11:26:07.510Z,16.80
2022-09-23T11:28:59.099Z,16.70
2022-09-23T11:31:49.616Z,16.70
2022-09-23T11:34:44.108Z,16.70
2022-09-23T11:37:19.437Z,16.60
2022-09-23T11:39:59.662Z,16.60
2022-09-23T11:42:31.171Z,16.60
2022-09-23T11:45:03.234Z,16.60
2022-09-23T11:47:40.094Z,16.70
2022-09-23T11:50:39.037Z,16.70
2022-09-23T11:53:16.032Z,16.60
2022-09-23T11:55:57.623Z,16.60
2022-09-23T11:58:53.513Z,16.70
2022-09-23T12:01:38.546Z,16.70
2022-09-23T12:04:19.808Z,16.70
2022-09-23T12:07:14.801Z,16.80
2022-09-23T12:10:03.696Z,16.80
2022-09-23T12:12:49.013Z,16.70
2022-09-23T12:15:39.784Z,16.70
2022-09-23T12:18:35.969Z,16.70
2022-09-23T12:21:49.242Z,16.70
2022-09-23T12:24:44.247Z,16.70
2022-09-23T12:27:26.291Z,16.70
2022-09-23T12:29:59.763Z,16.70
2022-09-23T12:32:27.629Z,16.80
2022-09-23T12:34:55.561Z,16.90
2022-09-23T12:37:49.073Z,17.00
2022-09-23T12:40:44.809Z,17.00
2022-09-23T12:43:33.130Z,17.00
2022-09-23T12:46:27.620Z,17.00
2022-09-23T12:48:57.450Z,17.10
2022-09-23T12:51:29.719Z,17.10
2022-09-23T12:53:58.364Z,17.00
2022-09-23T12:56:48.686Z,17.00
2022-09-23T12:59:54.699Z,16.90
2022-09-23T13:02:33.405Z,16.90
2022-09-23T13:05:41.415Z,17.10
2022-09-23T13:08:18.343Z,17.10
2022-09-23T13:11:02.229Z,17.20
2022-09-23T13:13:33.377Z,17.20
2022-09-23T13:16:22.164Z,17.10
2022-09-23T13:18:54.705Z,17.10
2022-09-23T13:21:43.810Z,17.00
2022-09-23T13:24:14.412Z,16.90
2022-09-23T13:26:47.212Z,16.80
2022-09-23T13:29:24.091Z,16.80
2022-09-23T13:31:51.759Z,16.80
2022-09-23T13:34:23.142Z,16.80
2022-09-23T13:36:50.089Z,16.80
2022-09-23T13:39:24.545Z,16.70
2022-09-23T13:41:55.922Z,16.70
2022-09-23T13:44:23.712Z,16.70
2022-09-23T13:46:58.196Z,16.60
2022-09-23T13:49:27.064Z,16.70
2022-09-23T13:51:56.297Z,16.60
2022-09-23T13:54:32.249Z,16.50
2022-09-23T13:57:00.083Z,16.40
2022-09-23T13:59:28.564Z,16.30
2022-09-23T14:02:20.183Z,16.20
2022-09-23T14:04:47.540Z,16.10
2022-09-23T14:07:19.010Z,16.10
2022-09-23T14:09:52.309Z,16.10
2022-09-23T14:12:22.501Z,16.00
2022-09-23T14:14:51.832Z,15.90
2022-09-23T14:17:22.975Z,15.80
2022-09-23T14:19:50.861Z,15.80
2022-09-23T14:22:27.195Z,15.70
2022-09-23T14:24:56.283Z,15.70
2022-09-23T14:27:33.278Z,15.60
2022-09-23T14:30:03.105Z,15.60
2022-09-23T14:32:30.960Z,15.60
2022-09-23T14:35:00.899Z,15.70
2022-09-23T14:37:55.481Z,15.70
2022-09-23T14:40:26.661Z,15.60
2022-09-23T14:43:31.240Z,15.60
2022-09-23T14:45:59.141Z,15.60
2022-09-23T14:48:32.797Z,15.60
2022-09-23T14:51:02.302Z,15.60
2022-09-23T14:53:34.848Z,15.50
2022-09-23T14:56:07.898Z,15.50
2022-09-23T14:58:42.801Z,15.60
2022-09-23T15:01:28.762Z,15.50
2022-09-23T15:03:56.364Z,15.60
2022-09-23T15:06:24.529Z,15.50
2022-09-23T15:08:56.006Z,15.50
2022-09-23T15:11:23.272Z,15.50
2022-09-23T15:13:52.846Z,15.50
2022-09-23T15:16:27.872Z,15.50
2022-09-23T15:18:57.769Z,15.40
2022-09-23T15:21:30.473Z,15.40
2022-09-23T15:23:57.856Z,15.40
2022-09-23T15:26:40.950Z,15.40
2022-09-23T15:29:12.788Z,15.40
2022-09-23T15:31:39.669Z,15.40
2022-09-23T15:34:06.934Z,15.30
2022-09-23T15:36:34.999Z,15.30
2022-09-23T15:39:04.513Z,15.30
2022-09-23T15:41:33.356Z,15.30
2022-09-23T15:44:11.996Z,15.20
2022-09-23T15:46:40.806Z,15.20
2022-09-23T15:49:16.381Z,15.10
2022-09-23T15:51:43.452Z,15.20
2022-09-23T15:54:13.752Z,15.20
2022-09-23T15:56:40.653Z,15.20
2022-09-23T15:59:07.949Z,15.20
2022-09-23T16:01:36.626Z,15.20
2022-09-23T16:04:04.691Z,15.20
2022-09-23T16:06:32.250Z,15.20
2022-09-23T16:08:59.249Z,15.30
2022-09-23T16:11:31.561Z,15.30
2022-09-23T16:14:00.550Z,15.30
2022-09-23T16:16:28.390Z,15.30
2022-09-23T16:18:55.822Z,15.30
2022-09-23T16:21:26.015Z,15.30
2022-09-23T16:23:54.471Z,15.30
2022-09-23T16:26:21.736Z,15.30
2022-09-23T16:28:50.854Z,15.30
2022-09-23T16:31:18.363Z,15.20
2022-09-23T16:33:46.616Z,15.20
2022-09-23T16:36:28.728Z,15.20
2022-09-23T16:38:56.067Z,15.20
2022-09-23T16:41:31.652Z,15.20
2022-09-23T16:44:00.877Z,15.20
2022-09-23T16:46:29.482Z,15.20
2022-09-23T16:48:57.749Z,15.10
2022-09-23T16:51:38.363Z,15.10
2022-09-23T16:54:11.684Z,15.10
2022-09-23T16:56:44.384Z,15.10
2022-09-23T16:59:12.983Z,15.10
2022-09-23T17:01:58.579Z,15.10
2022-09-23T17:04:25.624Z,15.10
2022-09-23T17:06:54.414Z,15.10
2022-09-23T17:09:24.888Z,15.10
2022-09-23T17:12:11.401Z,15.00
2022-09-23T17:14:38.421Z,15.00
2022-09-23T17:17:06.537Z,15.00
2022-09-23T17:19:34.517Z,15.00
2022-09-23T17:22:01.493Z,15.00
2022-09-23T17:24:28.550Z,15.00
2022-09-23T17:26:55.696Z,15.00
2022-09-23T17:29:22.705Z,14.90
2022-09-23T17:31:49.809Z,14.90
2022-09-23T17:34:19.225Z,14.90
2022-09-23T17:36:46.522Z,14.90
2022-09-23T17:39:14.012Z,14.90
2022-09-23T17:41:41.040Z,14.90
2022-09-23T17:44:11.425Z,14.80
2022-09-23T17:46:38.752Z,14.80
2022-09-23T17:49:06.942Z,14.90
2022-09-23T17:51:34.085Z,14.90
2022-09-23T17:54:01.096Z,14.80
2022-09-23T17:56:31.075Z,14.80
2022-09-23T17:59:01.816Z,14.80
2022-09-23T18:01:29.382Z,14.80
2022-09-23T18:04:01.086Z,14.80
2022-09-23T18:06:31.851Z,14.80
2022-09-23T18:09:01.698Z,14.70
2022-09-23T18:11:30.351Z,14.70
2022-09-23T18:14:11.560Z,14.70
2022-09-23T18:16:40.662Z,14.70
2022-09-23T18:19:12.327Z,14.70
2022-09-23T18:21:42.196Z,14.70
2022-09-23T18:26:59.729Z,14.70
2022-09-23T18:29:27.339Z,14.70
2022-09-23T18:31:54.573Z,14.70
2022-09-23T18:34:22.061Z,14.60
2022-09-23T18:36:49.316Z,14.70
2022-09-23T18:39:17.052Z,14.60
2022-09-23T18:41:44.059Z,14.60
2022-09-23T18:44:11.313Z,14.60
2022-09-23T18:46:38.710Z,14.60
2022-09-23T18:49:24.279Z,14.60
2022-09-23T18:51:55.928Z,14.60
2022-09-23T18:54:24.846Z,14.60
2022-09-23T18:56:52.856Z,14.60
2022-09-23T18:59:24.993Z,14.60
2022-09-23T19:01:55.424Z,14.60
2022-09-23T19:04:24.548Z,14.60
2022-09-23T19:06:52.269Z,14.50
2022-09-23T19:09:19.508Z,14.60
2022-09-23T19:11:46.708Z,14.50
2022-09-23T19:14:14.149Z,14.60
2022-09-23T19:16:42.226Z,14.50
2022-09-23T19:19:09.875Z,14.50
2022-09-23T19:21:37.279Z,14.50
2022-09-23T19:24:07.395Z,14.50
2022-09-23T19:26:37.864Z,14.50
2022-09-23T19:29:08.180Z,14.50
2022-09-23T19:31:40.152Z,14.50
2022-09-23T19:34:12.412Z,14.50
2022-09-23T19:36:42.282Z,14.50
2022-09-23T19:39:14.704Z,14.50
2022-09-23T19:41:41.956Z,14.50
2022-09-23T19:44:08.976Z,14.50
2022-09-23T19:46:38.854Z,14.50
2022-09-23T19:49:07.195Z,14.50
2022-09-23T19:51:34.945Z,14.50
2022-09-23T19:54:03.774Z,14.50
2022-09-23T19:56:32.029Z,14.50
2022-09-23T19:59:00.064Z,14.40
2022-09-23T20:01:29.410Z,14.40
2022-09-23T20:03:56.856Z,14.40
2022-09-23T20:06:24.186Z,14.40
2022-09-23T20:08:51.146Z,14.40
2022-09-23T20:11:24.796Z,14.40
2022-09-23T20:14:01.607Z,14.40
2022-09-23T20:16:32.115Z,14.40
2022-09-23T20:19:00.485Z,14.30
2022-09-23T20:21:29.241Z,14.30
2022-09-23T20:23:57.070Z,14.30
2022-09-23T20:26:43.188Z,14.30
2022-09-23T20:29:11.154Z,14.30
2022-09-23T20:31:40.663Z,14.30
2022-09-23T20:34:08.278Z,14.20
2022-09-23T20:36:36.204Z,14.20
2022-09-23T20:39:08.001Z,14.20
2022-09-23T20:41:38.004Z,14.20
2022-09-23T20:44:14.269Z,14.30
2022-09-23T20:46:48.257Z,14.20
2022-09-23T20:49:16.838Z,14.20
2022-09-23T20:51:44.025Z,14.20
2022-09-23T20:54:12.146Z,14.20
2022-09-23T20:56:39.203Z,14.20
2022-09-23T20:59:06.451Z,14.10
2022-09-23T21:01:35.210Z,14.10
2022-09-23T21:04:05.014Z,14.20
2022-09-23T21:06:34.044Z,14.10
2022-09-23T21:09:01.127Z,14.10
2022-09-23T21:11:29.216Z,14.10
2022-09-23T21:13:56.605Z,14.10
2022-09-23T21:16:24.544Z,14.10
2022-09-23T21:18:55.391Z,14.10
2022-09-23T21:21:22.648Z,14.10
2022-09-23T21:23:51.085Z,14.10
2022-09-23T21:26:20.607Z,14.10
2022-09-23T21:28:50.213Z,14.10
2022-09-23T21:31:25.792Z,14.10
2022-09-23T21:34:04.649Z,14.10
2022-09-23T21:36:34.671Z,14.00
2022-09-23T21:39:01.855Z,14.10
2022-09-23T21:41:29.224Z,14.00
2022-09-23T21:43:58.012Z,14.10
2022-09-23T21:46:26.573Z,14.10
2022-09-23T21:48:55.448Z,14.10
2022-09-23T21:51:29.116Z,14.10
2022-09-23T21:53:57.734Z,14.10
2022-09-23T21:56:29.413Z,14.10
2022-09-23T21:58:57.887Z,14.10
2022-09-23T22:48:36.110Z,14.20
2022-09-23T22:51:05.047Z,14.20
2022-09-23T22:53:32.102Z,14.20
2022-09-23T22:56:01.191Z,14.10
2022-09-23T22:58:32.510Z,14.10
2022-09-23T23:00:59.886Z,14.20
2022-09-23T23:03:27.154Z,14.20
2022-09-23T23:05:57.601Z,14.20
2022-09-23T23:08:24.669Z,14.10
2022-09-23T23:10:51.696Z,14.10
2022-09-23T23:13:19.315Z,14.20
2022-09-23T23:15:46.284Z,14.20
2022-09-23T23:18:13.510Z,14.20
2022-09-23T23:20:40.473Z,14.10
2022-09-23T23:23:07.486Z,14.20
2022-09-23T23:25:34.753Z,14.20
2022-09-23T23:28:02.045Z,14.20
2022-09-23T23:30:28.976Z,14.20
2022-09-23T23:32:55.818Z,14.20
2022-09-23T23:35:22.751Z,14.20
2022-09-23T23:37:49.674Z,14.20
2022-09-23T23:40:20.126Z,14.20
2022-09-23T23:42:47.038Z,14.20
2022-09-23T23:45:14.063Z,14.10
2022-09-23T23:47:41.244Z,14.10
2022-09-23T23:50:09.830Z,14.20
2022-09-23T23:52:36.852Z,14.10
2022-09-23T23:55:04.000Z,14.10
2022-09-23T23:57:30.867Z,14.10
2022-09-23T23:59:57.892Z,14.10
